Time;durP1;ratioP1;P1;durP2;ratioP2;P2;SDS_P1;SDS_P2;PMS_P1;PMS_P2;Temp;Humidity;BMP_temperature;BMP_pressure;BME280_temperature;BME280_humidity;BME280_pressure;Samples;Min_cycle;Max_cycle;Signal;HPM_P1;HPM_P2
2021/06/18 00:01:01;;;;;;;8.88;6.45;;;25.00;60.60;;;;;;5242005;28;20063;-50
2021/06/18 00:03:33;;;;;;;8.60;5.83;;;25.00;60.50;;;;;;5243936;28;20049;-50
2021/06/18 00:06:06;;;;;;;7.20;6.33;;;25.00;60.60;;;;;;5239055;28;20057;-46
2021/06/18 00:08:39;;;;;;;8.27;6.63;;;25.00;60.50;;;;;;5241985;28;20048;-49
2021/06/18 00:11:12;;;;;;;11.68;6.03;;;25.00;60.50;;;;;;5244336;28;20055;-48
2021/06/18 00:13:45;;;;;;;8.48;5.93;;;24.90;60.50;;;;;;5236496;28;20060;-50
2021/06/18 00:16:17;;;;;;;10.35;6.03;;;24.90;60.60;;;;;;5212255;28;20055;-52
2021/06/18 00:18:50;;;;;;;11.07;6.50;;;24.90;60.50;;;;;;5242969;28;20063;-50
2021/06/18 00:21:22;;;;;;;6.97;5.97;;;24.90;60.50;;;;;;5247029;28;20654;-46
2021/06/18 00:23:55;;;;;;;6.47;5.78;;;24.90;60.50;;;;;;5244966;28;20048;-51
2021/06/18 00:26:28;;;;;;;10.00;6.03;;;24.90;60.50;;;;;;5243313;28;20058;-54
2021/06/18 00:29:00;;;;;;;6.37;5.77;;;24.90;60.60;;;;;;5244481;28;20075;-46
2021/06/18 00:31:33;;;;;;;7.30;6.30;;;24.80;60.50;;;;;;5226571;28;20056;-48
2021/06/18 00:34:05;;;;;;;8.27;6.27;;;24.80;60.50;;;;;;5245614;28;20453;-48
2021/06/18 00:36:38;;;;;;;9.50;6.28;;;24.80;60.50;;;;;;5245939;28;20504;-54
2021/06/18 00:39:10;;;;;;;13.60;6.20;;;24.80;60.50;;;;;;5244936;28;20059;-50
2021/06/18 00:41:43;;;;;;;11.70;6.20;;;24.80;60.50;;;;;;5249204;28;20047;-46
2021/06/18 00:44:15;;;;;;;7.90;5.70;;;24.80;60.50;;;;;;5228585;28;20540;-48
2021/06/18 00:46:49;;;;;;;8.47;5.80;;;24.80;60.40;;;;;;5245587;28;20080;-49
2021/06/18 00:49:24;;;;;;;7.40;6.60;;;24.80;60.40;;;;;;5224266;28;20045;-50
2021/06/18 00:51:57;;;;;;;8.20;5.80;;;24.70;60.40;;;;;;5243663;28;20393;-51
2021/06/18 00:54:29;;;;;;;7.32;5.93;;;24.80;60.40;;;;;;5226155;28;20359;-50
2021/06/18 00:57:02;;;;;;;10.55;6.68;;;24.80;60.40;;;;;;5242172;28;20497;-51
2021/06/18 00:59:35;;;;;;;6.40;5.25;;;24.70;60.40;;;;;;5243445;28;20059;-50
2021/06/18 01:02:09;;;;;;;6.82;5.72;;;24.70;60.40;;;;;;5245892;28;20055;-48
2021/06/18 01:04:42;;;;;;;7.22;6.13;;;24.70;60.40;;;;;;5244793;28;20060;-51
2021/06/18 01:07:18;;;;;;;8.30;5.88;;;24.70;60.50;;;;;;5246531;28;20045;-51
2021/06/18 01:10:13;;;;;;;7.85;5.88;;;24.70;60.50;;;;;;5241409;28;20927;-47
2021/06/18 01:13:02;;;;;;;6.85;6.03;;;24.70;60.60;;;;;;5245651;28;20055;-52
2021/06/18 01:15:43;;;;;;;9.45;6.00;;;24.70;60.60;;;;;;5246880;28;20052;-51
2021/06/18 01:18:25;;;;;;;7.93;5.82;;;24.70;60.50;;;;;;5226226;28;20518;-47
2021/06/18 01:21:18;;;;;;;11.57;5.80;;;24.70;60.50;;;;;;5243739;28;20694;-52
2021/06/18 01:23:59;;;;;;;6.72;5.82;;;24.60;60.50;;;;;;5248909;28;20057;-49
2021/06/18 01:26:57;;;;;;;7.85;6.20;;;24.60;60.60;;;;;;5248040;28;20041;-46
2021/06/18 01:29:35;;;;;;;9.00;5.57;;;24.60;60.50;;;;;;5245879;28;20044;-49
2021/06/18 01:32:09;;;;;;;6.43;5.82;;;24.60;60.60;;;;;;5227860;28;20056;-48
2021/06/18 01:34:42;;;;;;;6.47;5.82;;;24.60;60.70;;;;;;5242499;28;20056;-50
2021/06/18 01:37:18;;;;;;;6.95;5.72;;;24.60;60.70;;;;;;5225217;28;20712;-47
2021/06/18 01:39:52;;;;;;;7.05;5.63;;;24.60;60.70;;;;;;5245020;28;20430;-47
2021/06/18 01:42:26;;;;;;;;;;;24.60;60.90;;;;;;5240419;28;20420;-48
2021/06/18 01:44:59;;;;;;;6.75;6.07;;;24.50;60.80;;;;;;5246187;28;19927;-51
2021/06/18 01:47:31;;;;;;;6.85;5.60;;;24.50;60.80;;;;;;5252445;28;20036;-49
2021/06/18 01:50:06;;;;;;;7.88;6.18;;;24.50;60.80;;;;;;5230176;28;20055;-48
2021/06/18 01:52:41;;;;;;;11.27;5.88;;;24.50;60.80;;;;;;5250670;28;20048;-49
2021/06/18 01:55:15;;;;;;;8.70;5.95;;;24.50;60.80;;;;;;5247148;28;20090;-53
2021/06/18 01:57:49;;;;;;;6.20;5.60;;;24.50;60.80;;;;;;5250623;28;20040;-48
2021/06/18 02:00:23;;;;;;;8.40;6.43;;;24.50;60.80;;;;;;5249165;28;20615;-53
2021/06/18 02:03:02;;;;;;;6.00;5.40;;;24.50;60.70;;;;;;5249601;28;20059;-51
2021/06/18 02:05:37;;;;;;;6.30;5.45;;;24.50;60.70;;;;;;5241754;28;20066;-49
2021/06/18 02:08:11;;;;;;;6.78;5.63;;;24.50;60.80;;;;;;5243626;28;20044;-51
2021/06/18 02:10:47;;;;;;;6.45;5.72;;;24.50;60.80;;;;;;5246110;28;20051;-49
2021/06/18 02:13:21;;;;;;;11.05;5.85;;;24.50;60.70;;;;;;5248238;28;20058;-51
2021/06/18 02:15:54;;;;;;;8.73;5.70;;;24.50;60.70;;;;;;5242740;28;20073;-50
2021/06/18 02:18:28;;;;;;;;;;;24.40;60.60;;;;;;5246341;28;20095;-52
2021/06/18 02:21:01;;;;;;;12.68;6.95;;;24.40;60.60;;;;;;5245535;28;19924;-53
2021/06/18 02:23:34;;;;;;;6.75;5.55;;;24.40;60.70;;;;;;5246505;28;20123;-48
2021/06/18 02:26:08;;;;;;;8.68;5.70;;;24.40;60.60;;;;;;5244172;28;20428;-53
2021/06/18 02:28:41;;;;;;;6.95;5.85;;;24.40;60.50;;;;;;5250527;28;20053;-49
2021/06/18 02:31:14;;;;;;;6.68;5.85;;;24.40;60.50;;;;;;5249745;28;20056;-48
2021/06/18 02:33:51;;;;;;;8.13;5.88;;;24.40;60.50;;;;;;5246353;28;20087;-47
2021/06/18 02:36:24;;;;;;;6.82;5.68;;;24.40;60.50;;;;;;5245069;28;20059;-50
2021/06/18 02:38:57;;;;;;;10.15;5.65;;;24.40;60.60;;;;;;5243126;28;20055;-49
2021/06/18 02:41:30;;;;;;;11.52;6.13;;;24.40;60.60;;;;;;5247107;28;20056;-50
2021/06/18 02:44:03;;;;;;;7.05;6.35;;;24.40;60.90;;;;;;5245464;28;20044;-50
2021/06/18 02:46:39;;;;;;;7.07;5.72;;;24.30;60.50;;;;;;5240409;28;20044;-49
2021/06/18 02:49:14;;;;;;;10.93;6.82;;;24.40;60.60;;;;;;5230037;28;20047;-49
2021/06/18 02:51:52;;;;;;;8.57;5.80;;;24.30;60.50;;;;;;5243494;28;20048;-47
2021/06/18 02:54:48;;;;;;;7.90;6.05;;;24.30;60.50;;;;;;5245387;28;20060;-49
2021/06/18 02:57:24;;;;;;;7.95;6.00;;;24.30;60.60;;;;;;5246749;28;20067;-52
2021/06/18 03:00:03;;;;;;;8.55;5.60;;;24.30;60.60;;;;;;5245097;28;20527;-53
2021/06/18 03:02:43;;;;;;;9.18;6.05;;;24.30;60.60;;;;;;5240701;28;20048;-47
2021/06/18 03:05:19;;;;;;;6.70;5.20;;;24.30;60.60;;;;;;5246016;28;20060;-53
2021/06/18 03:08:03;;;;;;;6.50;5.78;;;24.30;60.70;;;;;;5244597;28;20040;-50
2021/06/18 03:10:41;;;;;;;6.70;5.88;;;24.30;60.60;;;;;;5246544;28;20057;-50
2021/06/18 03:13:18;;;;;;;7.43;5.82;;;24.30;60.60;;;;;;5222443;28;20444;-48
2021/06/18 03:15:51;;;;;;;6.47;5.75;;;24.30;60.50;;;;;;5242502;28;20728;-50
2021/06/18 03:18:24;;;;;;;7.38;6.03;;;24.30;60.50;;;;;;5242881;28;20047;-48
2021/06/18 03:21:00;;;;;;;6.18;5.57;;;24.20;60.40;;;;;;5243719;28;20071;-52
2021/06/18 03:23:34;;;;;;;6.53;5.93;;;24.20;60.40;;;;;;5246289;28;20508;-52
2021/06/18 03:26:08;;;;;;;6.57;5.57;;;24.30;60.50;;;;;;5242855;28;20493;-52
2021/06/18 03:28:40;;;;;;;7.43;6.32;;;24.20;60.40;;;;;;5223435;28;20048;-50
2021/06/18 03:31:16;;;;;;;8.23;6.30;;;24.20;60.40;;;;;;5240968;28;20040;-52
2021/06/18 03:33:50;;;;;;;7.20;6.40;;;24.20;60.50;;;;;;5207813;28;20141;-50
2021/06/18 03:36:25;;;;;;;6.35;5.75;;;24.20;60.40;;;;;;5242098;28;20048;-53
2021/06/18 03:38:58;;;;;;;8.00;6.40;;;24.20;60.40;;;;;;5241919;28;20048;-50
2021/06/18 03:41:30;;;;;;;10.60;7.13;;;24.20;60.40;;;;;;5247147;28;20043;-50
2021/06/18 03:44:03;;;;;;;7.37;6.67;;;24.20;60.50;;;;;;5241880;28;24857;-52
2021/06/18 03:46:38;;;;;;;6.13;5.43;;;24.20;60.50;;;;;;5236592;28;20052;-47
2021/06/18 03:49:11;;;;;;;6.45;5.70;;;24.20;60.60;;;;;;5243365;28;20123;-50
2021/06/18 03:51:45;;;;;;;8.93;6.13;;;24.10;60.60;;;;;;5243652;28;20048;-47
2021/06/18 03:54:18;;;;;;;9.50;6.15;;;24.20;60.70;;;;;;5243842;28;20055;-49
2021/06/18 03:56:52;;;;;;;9.52;5.78;;;24.10;60.70;;;;;;5244967;28;20075;-52
2021/06/18 03:59:26;;;;;;;9.18;6.50;;;24.10;60.80;;;;;;5246652;28;20063;-46
2021/06/18 04:02:00;;;;;;;7.50;5.82;;;24.10;60.90;;;;;;5245120;28;20048;-49
2021/06/18 04:04:34;;;;;;;7.40;6.60;;;24.10;61.00;;;;;;5244079;28;20048;-48
2021/06/18 04:07:08;;;;;;;6.85;6.10;;;24.10;61.00;;;;;;5242059;28;20243;-51
2021/06/18 04:09:41;;;;;;;;;;;24.10;61.10;;;;;;5242324;28;20049;-49
2021/06/18 04:12:14;;;;;;;7.88;6.35;;;24.00;61.00;;;;;;5235602;28;19935;-53
2021/06/18 04:14:47;;;;;;;12.52;6.70;;;24.10;61.10;;;;;;5233010;28;20059;-49
2021/06/18 04:17:20;;;;;;;8.60;6.33;;;24.10;61.10;;;;;;5223643;28;20048;-51
2021/06/18 04:19:53;;;;;;;7.10;5.27;;;24.10;61.10;;;;;;5223994;28;20426;-56
2021/06/18 04:22:31;;;;;;;7.57;6.38;;;24.20;61.20;;;;;;5225035;28;20063;-52
2021/06/18 04:25:06;;;;;;;7.57;5.90;;;24.20;61.20;;;;;;5235898;28;20048;-50
2021/06/18 04:27:39;;;;;;;6.32;5.72;;;24.20;61.20;;;;;;5232252;28;20052;-51
2021/06/18 04:30:14;;;;;;;5.93;5.33;;;24.30;61.20;;;;;;5223074;28;20056;-51
2021/06/18 04:32:48;;;;;;;7.78;6.03;;;24.30;61.20;;;;;;5227896;28;20043;-49
2021/06/18 04:35:20;;;;;;;;;;;24.30;61.20;;;;;;5235099;28;22889;-47
2021/06/18 04:37:53;;;;;;;6.80;5.47;;;24.30;61.10;;;;;;5233493;28;19927;-52
2021/06/18 04:40:25;;;;;;;6.07;5.47;;;24.30;61.20;;;;;;5230223;28;20051;-50
2021/06/18 04:42:59;;;;;;;5.90;5.30;;;24.30;61.20;;;;;;5231728;28;20059;-56
2021/06/18 04:45:32;;;;;;;6.28;5.65;;;24.40;61.30;;;;;;5226715;28;20056;-48
2021/06/18 04:48:05;;;;;;;9.30;5.45;;;24.40;61.30;;;;;;5234058;28;20048;-56
2021/06/18 04:50:38;;;;;;;7.05;5.55;;;24.40;61.30;;;;;;5224944;28;20538;-57
2021/06/18 04:53:10;;;;;;;17.23;6.57;;;24.40;61.30;;;;;;5232854;28;22212;-53
2021/06/18 04:55:43;;;;;;;9.20;7.10;;;24.50;61.70;;;;;;5230097;28;20055;-55
2021/06/18 04:58:16;;;;;;;18.92;6.82;;;24.50;62.00;;;;;;5232266;28;20051;-53
2021/06/18 05:00:48;;;;;;;12.33;7.57;;;24.50;62.30;;;;;;5242465;28;20059;-50
2021/06/18 05:03:21;;;;;;;11.57;6.85;;;24.50;62.40;;;;;;5210181;28;20513;-52
2021/06/18 05:05:54;;;;;;;9.20;7.30;;;24.50;62.50;;;;;;5219514;28;20063;-54
2021/06/18 05:08:26;;;;;;;12.43;6.75;;;24.50;62.50;;;;;;5225293;28;20052;-52
2021/06/18 05:10:59;;;;;;;10.80;7.40;;;24.50;62.50;;;;;;5207351;28;20056;-49
2021/06/18 05:13:31;;;;;;;12.13;6.50;;;24.50;62.60;;;;;;5225389;28;20060;-55
2021/06/18 05:16:04;;;;;;;13.00;6.27;;;24.40;62.60;;;;;;5241076;28;20546;-55
2021/06/18 05:18:37;;;;;;;8.73;6.27;;;24.40;62.70;;;;;;5222860;28;20048;-53
2021/06/18 05:21:09;;;;;;;7.03;6.22;;;24.50;62.70;;;;;;5240549;28;21312;-48
2021/06/18 05:23:43;;;;;;;9.00;6.80;;;24.40;62.70;;;;;;5235775;28;20064;-53
2021/06/18 05:26:15;;;;;;;8.73;6.88;;;24.40;62.80;;;;;;5236613;28;20765;-49
2021/06/18 05:28:48;;;;;;;13.37;6.70;;;24.40;62.80;;;;;;5215222;28;20078;-50
2021/06/18 05:31:20;;;;;;;10.88;6.82;;;24.50;63.00;;;;;;5236343;28;20075;-56
2021/06/18 05:33:53;;;;;;;10.93;6.78;;;24.40;63.00;;;;;;5230779;28;20596;-51
2021/06/18 05:36:25;;;;;;;7.75;6.80;;;24.40;63.10;;;;;;5235503;28;20039;-52
2021/06/18 05:38:58;;;;;;;10.23;6.32;;;24.40;63.10;;;;;;5229885;28;20056;-54
2021/06/18 05:41:31;;;;;;;9.57;6.40;;;24.50;63.10;;;;;;5227865;28;20060;-49
2021/06/18 05:44:03;;;;;;;12.47;7.33;;;24.50;63.10;;;;;;5223771;28;20056;-52
2021/06/18 05:46:36;;;;;;;10.65;6.55;;;24.50;63.10;;;;;;5235612;28;20405;-54
2021/06/18 05:49:09;;;;;;;12.73;6.57;;;24.50;62.50;;;;;;5223686;28;20533;-54
2021/06/18 05:51:41;;;;;;;9.80;6.90;;;24.50;63.00;;;;;;5220473;28;20400;-52
2021/06/18 05:54:14;;;;;;;11.47;6.70;;;24.50;62.90;;;;;;5222681;28;20502;-53
2021/06/18 05:56:47;;;;;;;12.82;7.03;;;24.50;62.90;;;;;;5219842;28;20163;-52
2021/06/18 05:59:20;;;;;;;10.70;6.88;;;24.50;62.80;;;;;;5227629;28;20052;-55
2021/06/18 06:01:53;;;;;;;8.90;6.93;;;24.60;62.90;;;;;;5228245;28;21964;-51
2021/06/18 06:04:25;;;;;;;10.00;6.73;;;24.60;62.90;;;;;;5227948;28;20052;-56
2021/06/18 06:06:58;;;;;;;13.50;6.50;;;24.60;62.80;;;;;;5229088;28;20325;-56
2021/06/18 06:09:30;;;;;;;10.57;6.93;;;24.60;62.90;;;;;;5226203;28;20127;-53
2021/06/18 06:12:03;;;;;;;11.63;6.90;;;24.60;62.90;;;;;;4532466;28;10000447;-52
2021/06/18 06:14:35;;;;;;;8.82;6.80;;;24.60;63.10;;;;;;5242730;28;20048;-52
2021/06/18 06:17:08;;;;;;;10.57;6.50;;;24.60;63.10;;;;;;5239489;28;20059;-53
2021/06/18 06:19:40;;;;;;;15.40;7.43;;;24.60;63.10;;;;;;5246088;28;20720;-51
2021/06/18 06:22:13;;;;;;;14.40;6.97;;;24.60;63.20;;;;;;5239382;28;20052;-53
2021/06/18 06:24:46;;;;;;;9.70;6.70;;;24.60;63.00;;;;;;5232997;28;20044;-52
2021/06/18 06:27:19;;;;;;;7.18;6.22;;;24.70;63.00;;;;;;5246136;28;20044;-50
2021/06/18 06:29:51;;;;;;;10.80;7.00;;;24.70;62.90;;;;;;5225444;28;20048;-52
2021/06/18 06:32:24;;;;;;;7.00;6.25;;;24.70;62.80;;;;;;5246863;28;20056;-54
2021/06/18 06:34:57;;;;;;;7.25;5.78;;;24.70;62.70;;;;;;5246068;28;20037;-51
2021/06/18 06:37:30;;;;;;;8.88;6.20;;;24.70;62.70;;;;;;5235905;28;20046;-56
2021/06/18 06:40:03;;;;;;;8.30;6.30;;;24.70;62.60;;;;;;5244642;28;20823;-49
2021/06/18 06:42:36;;;;;;;8.63;6.65;;;24.70;62.50;;;;;;5242107;28;20063;-51
2021/06/18 06:45:09;;;;;;;8.07;6.57;;;24.70;62.40;;;;;;5249152;28;20063;-51
2021/06/18 06:47:42;;;;;;;10.27;6.03;;;24.70;62.30;;;;;;5243677;28;20059;-52
2021/06/18 06:50:15;;;;;;;7.32;6.30;;;24.80;62.30;;;;;;5247168;28;20072;-52
2021/06/18 06:52:48;;;;;;;8.88;6.35;;;24.80;62.20;;;;;;5228501;28;20432;-49
2021/06/18 06:55:20;;;;;;;8.45;6.00;;;24.80;62.10;;;;;;5249707;28;20425;-49
2021/06/18 06:57:53;;;;;;;8.10;6.05;;;24.80;62.00;;;;;;5241509;28;20065;-52
2021/06/18 07:00:26;;;;;;;11.07;6.63;;;24.80;61.90;;;;;;5243536;28;20048;-50
2021/06/18 07:02:58;;;;;;;10.00;5.93;;;24.80;61.80;;;;;;5246003;28;20047;-46
2021/06/18 07:05:31;;;;;;;11.80;6.97;;;24.80;61.70;;;;;;5244819;28;20048;-50
2021/06/18 07:08:18;;;;;;;8.90;6.93;;;24.90;61.80;;;;;;5245051;28;20056;-47
2021/06/18 07:10:53;;;;;;;12.20;7.03;;;24.90;61.90;;;;;;5243555;28;20048;-52
2021/06/18 07:13:27;;;;;;;10.40;6.47;;;24.90;62.00;;;;;;5248844;28;20052;-52
2021/06/18 07:15:59;;;;;;;;;;;24.90;61.90;;;;;;5236121;28;20056;-48
2021/06/18 07:18:35;;;;;;;8.82;5.95;;;24.90;62.00;;;;;;5243419;28;20336;-52
2021/06/18 07:21:08;;;;;;;12.55;6.47;;;24.90;62.20;;;;;;5244066;28;20071;-54
2021/06/18 07:23:40;;;;;;;9.93;6.35;;;24.90;62.00;;;;;;5242867;28;24720;-49
2021/06/18 07:26:13;;;;;;;30.13;7.23;;;24.90;61.90;;;;;;5241775;28;20048;-53
2021/06/18 07:28:45;;;;;;;16.90;6.57;;;25.00;62.50;;;;;;5240912;28;20048;-56
2021/06/18 07:31:18;;;;;;;11.70;6.53;;;25.00;62.80;;;;;;5223640;28;20063;-57
2021/06/18 07:33:51;;;;;;;10.40;6.97;;;25.00;62.90;;;;;;5244026;28;20051;-55
2021/06/18 07:36:23;;;;;;;12.23;6.37;;;25.00;62.80;;;;;;5241428;28;20066;-58
2021/06/18 07:38:56;;;;;;;18.83;5.70;;;25.00;63.70;;;;;;5240103;28;20420;-55
2021/06/18 07:41:30;;;;;;;8.43;6.05;;;25.10;63.50;;;;;;5238861;28;20060;-56
2021/06/18 07:44:05;;;;;;;8.45;5.55;;;25.00;63.20;;;;;;5242680;28;20056;-54
2021/06/18 07:46:37;;;;;;;;;;;25.10;63.00;;;;;;5238717;28;20461;-56
2021/06/18 07:49:10;;;;;;;10.85;6.28;;;25.10;63.30;;;;;;5240099;28;19950;-57
2021/06/18 07:51:46;;;;;;;11.93;6.18;;;25.10;63.30;;;;;;5245696;28;20085;-57
2021/06/18 07:54:20;;;;;;;7.70;6.15;;;25.10;63.50;;;;;;5244251;28;20052;-56
2021/06/18 07:56:53;;;;;;;11.70;6.80;;;25.10;63.40;;;;;;5234535;28;20052;-55
2021/06/18 07:59:26;;;;;;;10.95;6.68;;;25.10;63.20;;;;;;5237145;28;20497;-56
2021/06/18 08:01:58;;;;;;;10.23;7.00;;;25.10;63.10;;;;;;5238591;28;20059;-54
2021/06/18 08:04:52;;;;;;;13.35;7.20;;;25.10;63.00;;;;;;5242371;28;20052;-55
2021/06/18 08:07:24;;;;;;;8.45;7.25;;;25.10;62.90;;;;;;5251042;28;20044;-55
2021/06/18 08:09:57;;;;;;;8.40;6.87;;;25.10;62.90;;;;;;5239864;28;20387;-57
2021/06/18 08:12:30;;;;;;;11.55;7.10;;;25.20;62.90;;;;;;5238847;28;21935;-51
2021/06/18 08:15:04;;;;;;;7.63;6.83;;;25.20;63.00;;;;;;5242298;28;20060;-55
2021/06/18 08:17:37;;;;;;;10.30;7.25;;;25.20;62.90;;;;;;5239378;28;20060;-55
2021/06/18 08:20:16;;;;;;;9.80;6.97;;;25.20;63.00;;;;;;5238295;28;20432;-54
2021/06/18 08:22:49;;;;;;;8.32;7.10;;;25.20;63.10;;;;;;5240955;28;20040;-54
2021/06/18 08:25:22;;;;;;;8.70;6.80;;;25.20;63.00;;;;;;5236718;28;20055;-56
2021/06/18 08:27:57;;;;;;;8.85;6.68;;;25.20;62.90;;;;;;5224724;28;20048;-54
2021/06/18 08:30:30;;;;;;;9.32;6.70;;;25.20;63.10;;;;;;5238096;28;20520;-56
2021/06/18 08:33:03;;;;;;;;;;;25.20;63.00;;;;;;5233635;28;20212;-55
2021/06/18 08:35:36;;;;;;;8.13;7.32;;;25.20;62.90;;;;;;5236115;28;19924;-52
2021/06/18 08:38:08;;;;;;;8.23;7.10;;;25.20;63.00;;;;;;5241281;28;20055;-55
2021/06/18 08:40:42;;;;;;;12.05;8.38;;;25.20;63.00;;;;;;5236155;28;20055;-52
2021/06/18 08:43:15;;;;;;;13.55;8.45;;;25.20;63.10;;;;;;5241266;28;20056;-56
2021/06/18 08:45:49;;;;;;;12.75;8.70;;;25.20;63.00;;;;;;5237177;28;20686;-56
2021/06/18 08:48:22;;;;;;;10.40;8.97;;;25.20;62.80;;;;;;5229855;28;20044;-52
2021/06/18 08:50:54;;;;;;;12.13;8.93;;;25.30;62.80;;;;;;5225906;28;20306;-57
2021/06/18 08:53:28;;;;;;;10.45;8.23;;;25.30;62.80;;;;;;5233630;28;20051;-55
2021/06/18 08:56:01;;;;;;;13.35;8.18;;;25.30;62.80;;;;;;5225305;28;20394;-56
2021/06/18 08:58:33;;;;;;;12.90;8.60;;;25.30;62.80;;;;;;5249441;28;20052;-53
2021/06/18 09:01:06;;;;;;;12.57;8.05;;;25.30;62.80;;;;;;5242208;28;20051;-54
2021/06/18 09:03:44;;;;;;;11.95;8.30;;;25.30;62.90;;;;;;5242075;28;20370;-57
2021/06/18 09:06:36;;;;;;;9.27;8.15;;;25.30;63.00;;;;;;5221917;28;20040;-57
2021/06/18 09:09:19;;;;;;;11.55;8.90;;;25.40;63.20;;;;;;5241131;28;20055;-56
2021/06/18 09:11:58;;;;;;;10.32;8.45;;;25.40;63.30;;;;;;5222570;28;20060;-56
2021/06/18 09:14:36;;;;;;;10.82;8.65;;;25.40;63.50;;;;;;5244335;28;20052;-55
2021/06/18 09:17:20;;;;;;;13.77;8.98;;;25.40;63.40;;;;;;5243434;28;20059;-53
2021/06/18 09:19:56;;;;;;;12.98;8.70;;;25.40;63.60;;;;;;5244724;28;20060;-54
2021/06/18 09:22:42;;;;;;;16.88;8.60;;;25.40;63.50;;;;;;5244817;28;20072;-52
2021/06/18 09:25:18;;;;;;;12.60;8.85;;;25.40;63.50;;;;;;5242726;28;20411;-54
2021/06/18 09:27:51;;;;;;;10.07;8.93;;;25.50;63.60;;;;;;5245594;28;20052;-56
2021/06/18 09:30:31;;;;;;;9.63;8.37;;;25.50;63.40;;;;;;5247460;28;20066;-56
2021/06/18 09:33:16;;;;;;;10.85;9.13;;;25.50;63.40;;;;;;5248992;28;20294;-54
2021/06/18 09:36:09;;;;;;;13.70;9.05;;;25.50;63.20;;;;;;5239423;28;20984;-53
2021/06/18 09:38:49;;;;;;;11.98;9.15;;;25.50;62.80;;;;;;5239831;28;20056;-53
2021/06/18 09:41:38;;;;;;;11.88;8.85;;;25.50;62.70;;;;;;5235784;28;20518;-55
2021/06/18 09:44:16;;;;;;;14.20;8.82;;;25.50;62.60;;;;;;5243141;28;20495;-51
2021/06/18 09:46:52;;;;;;;14.18;8.50;;;25.50;62.30;;;;;;5239692;28;20059;-55
2021/06/18 09:49:31;;;;;;;13.55;8.48;;;25.50;61.90;;;;;;5243163;28;20056;-54
2021/06/18 09:52:05;;;;;;;11.27;7.95;;;25.60;61.60;;;;;;5234639;28;20079;-57
2021/06/18 09:54:44;;;;;;;9.88;8.25;;;25.60;61.40;;;;;;5224242;28;20064;-54
2021/06/18 09:57:18;;;;;;;14.02;8.20;;;25.60;61.50;;;;;;5234326;28;20052;-56
2021/06/18 09:59:57;;;;;;;9.65;7.47;;;25.60;61.30;;;;;;5238474;28;20650;-57
2021/06/18 10:02:45;;;;;;;11.70;7.80;;;25.60;61.10;;;;;;5243865;28;20063;-56
2021/06/18 10:05:23;;;;;;;11.43;7.28;;;25.70;60.80;;;;;;5239517;28;20040;-55
2021/06/18 10:07:56;;;;;;;12.55;7.57;;;25.70;60.50;;;;;;5239171;28;20063;-53
2021/06/18 10:10:34;;;;;;;14.17;8.50;;;25.70;60.30;;;;;;5247161;28;20507;-53
2021/06/18 10:13:06;;;;;;;9.40;7.85;;;25.70;60.30;;;;;;5216288;28;20302;-55
2021/06/18 10:15:39;;;;;;;14.23;8.57;;;25.70;60.20;;;;;;5249927;28;20476;-54
2021/06/18 10:18:13;;;;;;;16.17;8.33;;;25.70;60.30;;;;;;5249459;28;20052;-52
2021/06/18 10:20:46;;;;;;;12.52;8.25;;;25.70;60.20;;;;;;5227570;28;20416;-53
2021/06/18 10:23:25;;;;;;;17.15;9.02;;;25.70;60.10;;;;;;5249867;28;20444;-56
2021/06/18 10:26:03;;;;;;;11.40;9.07;;;25.70;60.10;;;;;;5247949;28;20059;-53
2021/06/18 10:28:37;;;;;;;11.15;8.32;;;25.70;60.30;;;;;;5249000;28;20504;-54
2021/06/18 10:31:09;;;;;;;11.77;8.45;;;25.70;60.40;;;;;;5245655;28;20055;-53
2021/06/18 10:33:43;;;;;;;14.18;9.65;;;25.80;60.60;;;;;;5236608;28;20056;-53
2021/06/18 10:36:22;;;;;;;16.87;9.83;;;25.80;60.50;;;;;;5240609;28;20047;-58
2021/06/18 10:39:15;;;;;;;14.02;10.45;;;25.80;60.50;;;;;;5242275;28;20781;-51
2021/06/18 10:41:53;;;;;;;12.38;9.02;;;25.80;60.70;;;;;;5239184;28;20079;-53
2021/06/18 10:44:39;;;;;;;17.75;9.13;;;25.80;59.80;;;;;;5237474;28;20056;-53
2021/06/18 10:47:23;;;;;;;11.98;8.77;;;25.80;59.50;;;;;;5240342;28;20060;-56
2021/06/18 10:49:58;;;;;;;12.90;8.73;;;25.80;59.40;;;;;;5239941;28;20060;-54
2021/06/18 10:52:39;;;;;;;12.20;8.57;;;25.80;59.50;;;;;;5228822;28;20063;-49
2021/06/18 10:55:14;;;;;;;9.70;8.10;;;25.80;59.40;;;;;;5239929;28;20531;-52
2021/06/18 10:57:51;;;;;;;11.43;8.25;;;25.80;59.30;;;;;;5225333;28;20047;-50
2021/06/18 11:00:27;;;;;;;12.52;8.98;;;25.80;59.20;;;;;;5240499;28;20043;-57
2021/06/18 11:03:00;;;;;;;9.43;7.25;;;25.90;59.30;;;;;;5243006;28;20531;-54
2021/06/18 11:05:38;;;;;;;11.13;8.30;;;25.80;59.20;;;;;;5239962;28;22629;-55
2021/06/18 11:08:19;;;;;;;14.60;8.68;;;25.90;59.20;;;;;;5241595;28;20527;-51
2021/06/18 11:11:26;;;;;;;14.40;8.60;;;25.90;59.00;;;;;;5239888;28;20462;-52
2021/06/18 11:14:01;;;;;;;12.02;7.90;;;25.90;59.20;;;;;;5241382;28;20044;-55
2021/06/18 11:16:34;;;;;;;12.80;8.48;;;25.90;58.80;;;;;;5237877;28;20504;-57
2021/06/18 11:19:20;;;;;;;10.80;8.02;;;25.90;58.80;;;;;;5231361;28;20066;-57
2021/06/18 11:21:55;;;;;;;11.93;8.25;;;25.90;58.80;;;;;;5213706;28;21579;-58
2021/06/18 11:24:40;;;;;;;13.30;7.80;;;25.90;58.70;;;;;;5231558;28;20052;-57
2021/06/18 11:27:28;;;;;;;9.18;8.27;;;25.90;58.50;;;;;;5237665;28;20044;-58
2021/06/18 11:30:33;;;;;;;15.65;7.97;;;25.90;58.20;;;;;;5234627;28;20048;-57
2021/06/18 11:33:06;;;;;;;11.10;7.88;;;25.90;58.00;;;;;;5181952;28;20717;-56
2021/06/18 11:35:39;;;;;;;7.90;7.10;;;25.90;58.00;;;;;;5232466;28;20535;-52
2021/06/18 11:38:15;;;;;;;;;;;25.90;57.80;;;;;;5221730;28;20052;-57
2021/06/18 11:40:57;;;;;;;10.80;7.40;;;25.90;57.70;;;;;;4539771;28;10000049;-53
2021/06/18 11:43:31;;;;;;;11.40;7.78;;;25.90;57.80;;;;;;5225860;28;20520;-57
2021/06/18 11:46:05;;;;;;;12.82;7.60;;;25.90;58.20;;;;;;5236361;28;20052;-54
2021/06/18 11:48:38;;;;;;;10.15;7.25;;;25.90;58.30;;;;;;5237173;28;20051;-54
2021/06/18 11:51:31;;;;;;;8.40;7.32;;;25.90;58.20;;;;;;5243203;28;20612;-55
2021/06/18 11:54:03;;;;;;;10.15;7.18;;;25.90;58.20;;;;;;5240820;28;20441;-52
2021/06/18 11:56:36;;;;;;;11.85;7.30;;;25.90;58.30;;;;;;5238569;28;20064;-56
2021/06/18 11:59:13;;;;;;;18.30;7.55;;;25.90;58.30;;;;;;5225365;28;20059;-61
2021/06/18 12:01:45;;;;;;;21.08;8.02;;;25.90;58.50;;;;;;5212450;28;21217;-59
2021/06/18 12:04:18;;;;;;;16.70;7.35;;;26.00;58.60;;;;;;5179262;28;20040;-59
2021/06/18 12:06:51;;;;;;;11.07;7.45;;;26.00;58.70;;;;;;5199234;28;20566;-61
2021/06/18 12:09:24;;;;;;;17.58;7.35;;;26.10;58.80;;;;;;5203111;28;20044;-57
2021/06/18 12:12:01;;;;;;;13.10;7.20;;;26.10;58.70;;;;;;5200880;28;20053;-59
2021/06/18 12:14:43;;;;;;;12.00;7.20;;;26.20;58.70;;;;;;5182999;28;20057;-59
2021/06/18 12:17:17;;;;;;;10.18;7.22;;;26.20;58.60;;;;;;5206418;28;20044;-60
2021/06/18 12:19:50;;;;;;;;;;;26.30;58.50;;;;;;5190372;28;20885;-59
2021/06/18 12:22:28;;;;;;;14.68;7.38;;;26.40;58.60;;;;;;5189354;28;19924;-60
2021/06/18 12:25:01;;;;;;;13.77;7.35;;;26.40;58.50;;;;;;5209169;28;20040;-57
2021/06/18 12:27:34;;;;;;;14.10;7.15;;;26.50;58.50;;;;;;5204859;28;20635;-58
2021/06/18 12:30:12;;;;;;;11.13;7.13;;;26.60;58.30;;;;;;5203669;28;20048;-57
2021/06/18 12:32:46;;;;;;;9.52;6.70;;;26.60;58.30;;;;;;5210978;28;20606;-60
2021/06/18 12:35:21;;;;;;;16.75;7.88;;;26.70;58.20;;;;;;5215310;28;20040;-57
2021/06/18 12:37:54;;;;;;;10.88;8.10;;;26.70;58.70;;;;;;5213194;28;20044;-59
2021/06/18 12:40:28;;;;;;;13.87;7.27;;;26.80;58.00;;;;;;5198337;28;20517;-57
2021/06/18 12:43:07;;;;;;;10.65;7.28;;;26.90;58.00;;;;;;5202521;28;20059;-58
2021/06/18 12:45:45;;;;;;;14.95;7.30;;;26.90;57.90;;;;;;5186815;28;20168;-58
2021/06/18 12:48:20;;;;;;;10.82;6.97;;;27.00;57.90;;;;;;5215035;28;20416;-57
2021/06/18 12:50:54;;;;;;;9.15;7.30;;;27.00;57.90;;;;;;5204825;28;20059;-58
2021/06/18 12:53:42;;;;;;;14.77;7.30;;;27.00;57.90;;;;;;5203217;28;20055;-56
2021/06/18 12:56:22;;;;;;;12.23;7.15;;;27.10;57.90;;;;;;5204592;28;20048;-59
2021/06/18 12:58:55;;;;;;;10.95;6.82;;;27.10;58.00;;;;;;5210020;28;20579;-58
2021/06/18 13:01:29;;;;;;;9.82;6.82;;;27.20;58.00;;;;;;5198882;28;20761;-58
2021/06/18 13:04:09;;;;;;;9.60;6.88;;;27.20;58.00;;;;;;5208899;28;20519;-56
2021/06/18 13:06:49;;;;;;;15.95;6.82;;;27.30;57.90;;;;;;5183965;28;20548;-59
2021/06/18 13:09:36;;;;;;;14.55;7.28;;;27.30;57.90;;;;;;5196378;28;20049;-54
2021/06/18 13:12:09;;;;;;;11.05;6.72;;;27.30;57.90;;;;;;5194532;28;20058;-55
2021/06/18 13:14:43;;;;;;;10.40;6.68;;;27.30;58.40;;;;;;5187051;28;21124;-59
2021/06/18 13:17:17;;;;;;;10.93;7.10;;;27.40;57.80;;;;;;5214836;28;20044;-53
2021/06/18 13:19:53;;;;;;;11.07;6.97;;;27.40;57.90;;;;;;5205309;28;20601;-56
2021/06/18 13:22:35;;;;;;;17.23;7.15;;;27.40;58.00;;;;;;5199944;28;20048;-58
2021/06/18 13:25:10;;;;;;;12.52;7.03;;;27.40;57.90;;;;;;5193340;28;20791;-59